KDXX

Lac Qui Parle County Airport

Madison, Minnesota, USA
METAR KDXX 260315Z AUTO 24009KT 10SM CLR M03/M08 A2991 RMK AO2
Observed Flight Rules
Feb-26 @ 03:15 UTC (11 minutes ago) Visual Flight Rules
Wind Visibility Clouds
240° at 9 knots 10 miles
  • Clear skies
Temperatures Readings
Current -3°C / 27°F
Dewpoint -8°C / 18°F
Humidity 69%
Altimeter 29.91" Hg
Pressure 1013 hPa
Elevation 330
METAR KDXX 260315Z AUTO 24009KT 10SM CLR M03/M08 A2991 RMK AO2
Observed Flight Rules
Feb-26 @ 03:15 UTC
(11 minutes ago)
VFR
Wind Visibility
240° at 9 knots 10 miles
Clouds
  • Clear skies
Temperature Dewpoint
-3°C / 27°F -8°C / 18°F
Humidity Altimeter Pressure
69% 29.91" Hg 1013 hPa